Airfield :







YOU CAN JOIN US ON...

 
LOGIN :

Register | Disclaimer

   EN    FR    IT 

 









Legend :    VFR   Marginal VFR   IFR   Intensive IFR   Very Intensive IFR
Visi :
Ceiling :
>= 8 km
>= 3000ft
5 to 8 km
1000 to 3000 ft
1500m to 5 km
500 to 1000 ft
800 to 1500m
200 to 500 ft
< 800m
< 200 ft
Symbols :   Thunderstorms  Fog  Heavy snow  Heavy precipitations  Wind > 20 kt






- Airport Elevation : 603 ft
- IATA code : LEB


KLEB - Lebanon Municipal

CURRENT METAR :
  • 201853Z 00000KT 10SM CLR 12/03 A3005 RMK AO2 SLP179 T01220033

EXPIRED METARs :
  • 201753Z 00000KT 10SM CLR 12/03 A3005 RMK AO2 SLP178 T01170028 10117 20011 58019
  • 201653Z 00000KT 10SM CLR 10/02 A3007 RMK AO2 SLP186 T01000022

TAF KLEB
Valid from the 20 at 18:00 until the 21 at 18:00 UTC


201730Z 2018/2118 VRB03KT P6SM BKN080
FM210800 VRB02KT 1/2SM FG BKN002
FM211400 VRB03KT P6SM FEW040



MET'MAP, your aeronautical weather chart ! - Copyright ORBIFLY December 2007 - Disclaimer

ORBIFLY MET'MAP TEAM :

Programming & Development : Alexandra Zaïnal
Concept & Development : Baudouin d'Aumeries
Co-Development & Prog : Marc-Olivier Méhu
Technical & hardware support : Manuel Goepfert

Contact : metmap@orbifly.com




SOURCES & CREDITS :

   NOAA